Ocean Tomo — 3FID9 — position and weather

sailwx.info

Track history (hours):
 
Tides and Currents Weather Stations Pressure Air Temp Water Temp Dewpoint Dewpoint Depression Visibility Wind Speed Wind Dir Waves Ship Positions

Ocean Tomo

Last reported at 2014-Sep-25 20:24 UTC. Time now 2014-Oct-24 16:56 UTC.
Position S 34°47' W 057°30'.
Warning: this ship's position is 28 days out of date.

Length 190 m; draft 10.3 m.

Type: Ship. MMSI: 372951000.

Date/timePositionNaut miles runAvg speedWind from/ knotsBaromVisibWave heightAir tempDewpointWater temp
2014-Sep-25 20:24S 34°47' W 057°30'1011.0
2014-Sep-25 19:28S 34°44' W 057°41'8 8.3
2014-Sep-25 18:33S 34°43' W 057°51'1111.5
2014-Sep-25 17:33S 34°39' W 058°04'1010.3
2014-Sep-25 16:33S 34°35' W 058°16'  
2014-Sep-16 12:33S 34°11' W 058°13'1110.9
2014-Sep-16 11:34S 34°17' W 058°02'1211.5
2014-Sep-16 10:33S 34°28' W 057°57'1312.5
2014-Sep-16 09:34S 34°40' W 057°58'9 8.8
2014-Sep-16 08:33S 34°45' W 057°49'1211.6
2014-Sep-16 07:34S 34°45' W 057°35'  
Track history (hours):
 
Tides and Currents Weather Stations Pressure Air Temp Water Temp Dewpoint Dewpoint Depression Visibility Wind Speed Wind Dir Waves Ship Positions

Ocean Tomo

Last reported at 2014-Sep-25 20:24 UTC. Time now 2014-Oct-24 16:56 UTC.
Position S 34°47' W 057°30'.
Warning: this ship's position is 28 days out of date.

Length 190 m; draft 10.3 m.

Type: Ship. MMSI: 372951000.

Date/timePositionNaut miles runAvg speedWind from/ knotsBaromVisibWave heightAir tempDewpointWater temp
2014-Sep-25 20:24S 34°47' W 057°30'1011.0
2014-Sep-25 19:28S 34°44' W 057°41'8 8.3
2014-Sep-25 18:33S 34°43' W 057°51'1111.5
2014-Sep-25 17:33S 34°39' W 058°04'1010.3
2014-Sep-25 16:33S 34°35' W 058°16'  
2014-Sep-16 12:33S 34°11' W 058°13'1110.9
2014-Sep-16 11:34S 34°17' W 058°02'1211.5
2014-Sep-16 10:33S 34°28' W 057°57'1312.5
2014-Sep-16 09:34S 34°40' W 057°58'9 8.8
2014-Sep-16 08:33S 34°45' W 057°49'1211.6
2014-Sep-16 07:34S 34°45' W 057°35'  

Dump ship's entire track history